Terminal Aerodrome Forecast
Issued by NWS Jackson, MS

Current Version | Previous Version | Text Only | Print | Product List | Glossary On
Versions: 1 2 3 4 5 6 7 8 9 10 11 12 13 14
011
FTUS44 KJAN 281120
TAFGWO
TAF
KGWO 281120Z 2812/2912 17004KT P6SM OVC110
     FM281900 18009KT P6SM VCTS SCT030 BKN050CB
     FM290100 19006KT P6SM SCT050 BKN250
     FM291000 VRB03KT 6SM BR SKC=

USA.gov is the U.S. government's official web portal to all federal, state and local government web resources and services.